sensor_id;sensor_type;location;lat;lon;timestamp;P1;durP1;ratioP1;P2;durP2;ratioP2
19623;SDS011;9959;49.798;9.928;2023-12-29T00:02:14;7.32;;;4.13;;
19623;SDS011;9959;49.798;9.928;2023-12-29T00:04:41;6.43;;;4.28;;
19623;SDS011;9959;49.798;9.928;2023-12-29T00:07:08;6.95;;;4.10;;
19623;SDS011;9959;49.798;9.928;2023-12-29T00:09:35;8.88;;;3.85;;
19623;SDS011;9959;49.798;9.928;2023-12-29T00:12:08;7.70;;;4.03;;
19623;SDS011;9959;49.798;9.928;2023-12-29T00:14:41;5.35;;;3.83;;
19623;SDS011;9959;49.798;9.928;2023-12-29T00:17:08;5.13;;;3.83;;
19623;SDS011;9959;49.798;9.928;2023-12-29T00:19:35;7.78;;;3.80;;
19623;SDS011;9959;49.798;9.928;2023-12-29T00:22:02;5.88;;;3.60;;
19623;SDS011;9959;49.798;9.928;2023-12-29T00:24:30;6.85;;;3.55;;
19623;SDS011;9959;49.798;9.928;2023-12-29T00:27:00;4.50;;;3.20;;
19623;SDS011;9959;49.798;9.928;2023-12-29T00:29:28;4.68;;;3.17;;
19623;SDS011;9959;49.798;9.928;2023-12-29T00:32:00;4.28;;;2.97;;
19623;SDS011;9959;49.798;9.928;2023-12-29T00:34:30;5.05;;;3.28;;
19623;SDS011;9959;49.798;9.928;2023-12-29T00:36:57;6.28;;;3.40;;
19623;SDS011;9959;49.798;9.928;2023-12-29T00:39:24;5.93;;;3.55;;
19623;SDS011;9959;49.798;9.928;2023-12-29T00:41:55;5.28;;;3.30;;
19623;SDS011;9959;49.798;9.928;2023-12-29T00:44:23;4.72;;;3.58;;
19623;SDS011;9959;49.798;9.928;2023-12-29T00:46:50;5.43;;;3.10;;
19623;SDS011;9959;49.798;9.928;2023-12-29T00:49:17;8.48;;;3.03;;
19623;SDS011;9959;49.798;9.928;2023-12-29T00:51:44;4.68;;;2.95;;
19623;SDS011;9959;49.798;9.928;2023-12-29T00:54:11;5.50;;;3.15;;
19623;SDS011;9959;49.798;9.928;2023-12-29T00:56:38;5.50;;;2.85;;
19623;SDS011;9959;49.798;9.928;2023-12-29T00:59:05;4.88;;;3.10;;
19623;SDS011;9959;49.798;9.928;2023-12-29T01:01:34;4.28;;;3.05;;
19623;SDS011;9959;49.798;9.928;2023-12-29T01:04:04;4.47;;;3.15;;
19623;SDS011;9959;49.798;9.928;2023-12-29T01:06:31;5.18;;;3.22;;
19623;SDS011;9959;49.798;9.928;2023-12-29T01:08:58;5.43;;;3.30;;
19623;SDS011;9959;49.798;9.928;2023-12-29T01:11:25;7.90;;;3.30;;
19623;SDS011;9959;49.798;9.928;2023-12-29T01:13:52;4.22;;;3.25;;
19623;SDS011;9959;49.798;9.928;2023-12-29T01:16:18;6.28;;;3.28;;
19623;SDS011;9959;49.798;9.928;2023-12-29T01:18:45;5.60;;;3.92;;
19623;SDS011;9959;49.798;9.928;2023-12-29T01:21:12;5.22;;;3.45;;
19623;SDS011;9959;49.798;9.928;2023-12-29T01:23:39;4.53;;;3.15;;
19623;SDS011;9959;49.798;9.928;2023-12-29T01:26:06;5.97;;;3.50;;
19623;SDS011;9959;49.798;9.928;2023-12-29T01:28:33;9.32;;;4.65;;
19623;SDS011;9959;49.798;9.928;2023-12-29T01:31:01;6.63;;;3.70;;
19623;SDS011;9959;49.798;9.928;2023-12-29T01:33:28;4.57;;;3.30;;
19623;SDS011;9959;49.798;9.928;2023-12-29T01:35:55;5.45;;;3.40;;
19623;SDS011;9959;49.798;9.928;2023-12-29T01:38:23;6.20;;;3.40;;
19623;SDS011;9959;49.798;9.928;2023-12-29T01:40:50;7.75;;;3.80;;
19623;SDS011;9959;49.798;9.928;2023-12-29T01:43:17;5.43;;;3.58;;
19623;SDS011;9959;49.798;9.928;2023-12-29T01:45:44;4.82;;;3.35;;
19623;SDS011;9959;49.798;9.928;2023-12-29T01:48:23;4.25;;;2.95;;
19623;SDS011;9959;49.798;9.928;2023-12-29T01:50:51;4.10;;;3.28;;
19623;SDS011;9959;49.798;9.928;2023-12-29T01:53:20;4.57;;;3.38;;
19623;SDS011;9959;49.798;9.928;2023-12-29T01:55:59;4.75;;;3.40;;
19623;SDS011;9959;49.798;9.928;2023-12-29T01:58:27;4.05;;;2.65;;
19623;SDS011;9959;49.798;9.928;2023-12-29T02:00:54;6.30;;;3.10;;
19623;SDS011;9959;49.798;9.928;2023-12-29T02:03:22;3.78;;;2.80;;
19623;SDS011;9959;49.798;9.928;2023-12-29T02:05:48;8.73;;;3.47;;
19623;SDS011;9959;49.798;9.928;2023-12-29T02:08:17;5.10;;;3.40;;
19623;SDS011;9959;49.798;9.928;2023-12-29T02:10:44;6.35;;;3.20;;
19623;SDS011;9959;49.798;9.928;2023-12-29T02:13:11;5.30;;;3.47;;
19623;SDS011;9959;49.798;9.928;2023-12-29T02:15:38;6.80;;;3.80;;
19623;SDS011;9959;49.798;9.928;2023-12-29T02:18:06;4.95;;;3.28;;
19623;SDS011;9959;49.798;9.928;2023-12-29T02:20:34;4.70;;;3.28;;
19623;SDS011;9959;49.798;9.928;2023-12-29T02:23:02;5.07;;;3.58;;
19623;SDS011;9959;49.798;9.928;2023-12-29T02:25:29;10.43;;;3.60;;
19623;SDS011;9959;49.798;9.928;2023-12-29T02:28:03;4.68;;;3.25;;
19623;SDS011;9959;49.798;9.928;2023-12-29T02:31:00;4.38;;;2.65;;
19623;SDS011;9959;49.798;9.928;2023-12-29T02:33:30;6.10;;;3.50;;
19623;SDS011;9959;49.798;9.928;2023-12-29T02:36:03;5.68;;;3.67;;
19623;SDS011;9959;49.798;9.928;2023-12-29T02:38:32;6.10;;;3.72;;
19623;SDS011;9959;49.798;9.928;2023-12-29T02:40:59;6.50;;;3.78;;
19623;SDS011;9959;49.798;9.928;2023-12-29T02:43:26;4.88;;;3.65;;
19623;SDS011;9959;49.798;9.928;2023-12-29T02:45:53;5.88;;;3.58;;
19623;SDS011;9959;49.798;9.928;2023-12-29T02:48:20;5.07;;;3.58;;
19623;SDS011;9959;49.798;9.928;2023-12-29T02:50:47;6.80;;;4.50;;
19623;SDS011;9959;49.798;9.928;2023-12-29T02:53:14;5.72;;;4.10;;
19623;SDS011;9959;49.798;9.928;2023-12-29T02:55:41;6.50;;;4.30;;
19623;SDS011;9959;49.798;9.928;2023-12-29T02:58:08;6.47;;;4.53;;
19623;SDS011;9959;49.798;9.928;2023-12-29T03:00:36;9.32;;;4.68;;
19623;SDS011;9959;49.798;9.928;2023-12-29T03:03:03;10.60;;;4.68;;
19623;SDS011;9959;49.798;9.928;2023-12-29T03:05:30;3.67;;;2.05;;
19623;SDS011;9959;49.798;9.928;2023-12-29T03:07:57;6.78;;;4.63;;
19623;SDS011;9959;49.798;9.928;2023-12-29T03:10:24;6.95;;;4.57;;
19623;SDS011;9959;49.798;9.928;2023-12-29T03:12:51;10.82;;;4.93;;
19623;SDS011;9959;49.798;9.928;2023-12-29T03:15:18;6.57;;;4.13;;
19623;SDS011;9959;49.798;9.928;2023-12-29T03:17:45;6.60;;;4.75;;
19623;SDS011;9959;49.798;9.928;2023-12-29T03:20:12;7.57;;;4.10;;
19623;SDS011;9959;49.798;9.928;2023-12-29T03:22:40;8.20;;;4.75;;
19623;SDS011;9959;49.798;9.928;2023-12-29T03:25:07;7.68;;;4.75;;
19623;SDS011;9959;49.798;9.928;2023-12-29T03:27:34;10.82;;;4.63;;
19623;SDS011;9959;49.798;9.928;2023-12-29T03:30:01;6.72;;;4.75;;
19623;SDS011;9959;49.798;9.928;2023-12-29T03:32:28;7.68;;;4.75;;
19623;SDS011;9959;49.798;9.928;2023-12-29T03:34:55;8.30;;;4.20;;
19623;SDS011;9959;49.798;9.928;2023-12-29T03:37:22;10.00;;;4.63;;
19623;SDS011;9959;49.798;9.928;2023-12-29T03:39:49;8.27;;;4.43;;
19623;SDS011;9959;49.798;9.928;2023-12-29T03:42:16;7.40;;;3.78;;
19623;SDS011;9959;49.798;9.928;2023-12-29T03:44:43;7.97;;;4.50;;
19623;SDS011;9959;49.798;9.928;2023-12-29T03:47:10;9.50;;;4.35;;
19623;SDS011;9959;49.798;9.928;2023-12-29T03:49:37;4.82;;;3.17;;
19623;SDS011;9959;49.798;9.928;2023-12-29T03:52:04;6.72;;;4.07;;
19623;SDS011;9959;49.798;9.928;2023-12-29T03:54:31;5.25;;;4.05;;
19623;SDS011;9959;49.798;9.928;2023-12-29T03:56:58;6.05;;;3.95;;
19623;SDS011;9959;49.798;9.928;2023-12-29T03:59:25;7.25;;;3.70;;
19623;SDS011;9959;49.798;9.928;2023-12-29T04:01:52;7.07;;;4.03;;
19623;SDS011;9959;49.798;9.928;2023-12-29T04:04:19;6.20;;;3.95;;
19623;SDS011;9959;49.798;9.928;2023-12-29T04:06:46;6.40;;;4.00;;
19623;SDS011;9959;49.798;9.928;2023-12-29T04:09:13;5.93;;;3.70;;
19623;SDS011;9959;49.798;9.928;2023-12-29T04:11:39;9.40;;;3.90;;
19623;SDS011;9959;49.798;9.928;2023-12-29T04:14:06;5.40;;;3.30;;
19623;SDS011;9959;49.798;9.928;2023-12-29T04:16:36;5.28;;;3.08;;
19623;SDS011;9959;49.798;9.928;2023-12-29T04:19:04;4.90;;;3.47;;
19623;SDS011;9959;49.798;9.928;2023-12-29T04:21:31;7.55;;;3.72;;
19623;SDS011;9959;49.798;9.928;2023-12-29T04:23:58;5.68;;;3.20;;
19623;SDS011;9959;49.798;9.928;2023-12-29T04:26:25;6.00;;;3.33;;
19623;SDS011;9959;49.798;9.928;2023-12-29T04:28:52;5.35;;;3.20;;
19623;SDS011;9959;49.798;9.928;2023-12-29T04:31:19;4.00;;;3.10;;
19623;SDS011;9959;49.798;9.928;2023-12-29T04:33:45;3.97;;;2.90;;
19623;SDS011;9959;49.798;9.928;2023-12-29T04:36:12;9.25;;;3.45;;
19623;SDS011;9959;49.798;9.928;2023-12-29T04:38:39;5.10;;;3.20;;
19623;SDS011;9959;49.798;9.928;2023-12-29T04:41:06;8.15;;;2.75;;
19623;SDS011;9959;49.798;9.928;2023-12-29T04:43:34;5.13;;;3.28;;
19623;SDS011;9959;49.798;9.928;2023-12-29T04:46:01;5.40;;;3.10;;
19623;SDS011;9959;49.798;9.928;2023-12-29T04:48:28;4.05;;;3.03;;
19623;SDS011;9959;49.798;9.928;2023-12-29T04:50:55;5.05;;;3.35;;
19623;SDS011;9959;49.798;9.928;2023-12-29T04:53:22;9.70;;;3.30;;
19623;SDS011;9959;49.798;9.928;2023-12-29T04:55:49;5.18;;;3.15;;
19623;SDS011;9959;49.798;9.928;2023-12-29T04:58:16;4.30;;;2.90;;
19623;SDS011;9959;49.798;9.928;2023-12-29T05:00:43;7.13;;;3.22;;
19623;SDS011;9959;49.798;9.928;2023-12-29T05:03:10;5.15;;;3.15;;
19623;SDS011;9959;49.798;9.928;2023-12-29T05:05:37;2.08;;;1.85;;
19623;SDS011;9959;49.798;9.928;2023-12-29T05:08:05;4.28;;;3.15;;
19623;SDS011;9959;49.798;9.928;2023-12-29T05:10:32;4.25;;;2.60;;
19623;SDS011;9959;49.798;9.928;2023-12-29T05:13:01;4.60;;;2.83;;
19623;SDS011;9959;49.798;9.928;2023-12-29T05:15:28;4.38;;;2.67;;
19623;SDS011;9959;49.798;9.928;2023-12-29T05:17:54;6.55;;;2.83;;
19623;SDS011;9959;49.798;9.928;2023-12-29T05:20:22;3.92;;;2.45;;
19623;SDS011;9959;49.798;9.928;2023-12-29T05:22:48;3.70;;;2.45;;
19623;SDS011;9959;49.798;9.928;2023-12-29T05:25:15;4.32;;;2.80;;
19623;SDS011;9959;49.798;9.928;2023-12-29T05:27:42;6.20;;;3.30;;
19623;SDS011;9959;49.798;9.928;2023-12-29T05:30:09;4.80;;;3.03;;
19623;SDS011;9959;49.798;9.928;2023-12-29T05:32:37;3.83;;;2.60;;
19623;SDS011;9959;49.798;9.928;2023-12-29T05:35:04;4.55;;;2.80;;
19623;SDS011;9959;49.798;9.928;2023-12-29T05:37:31;5.18;;;3.35;;
19623;SDS011;9959;49.798;9.928;2023-12-29T05:39:58;5.10;;;2.92;;
19623;SDS011;9959;49.798;9.928;2023-12-29T05:42:25;5.10;;;2.92;;
19623;SDS011;9959;49.798;9.928;2023-12-29T05:44:52;4.68;;;3.33;;
19623;SDS011;9959;49.798;9.928;2023-12-29T05:47:19;5.60;;;3.25;;
19623;SDS011;9959;49.798;9.928;2023-12-29T05:49:46;7.80;;;4.07;;
19623;SDS011;9959;49.798;9.928;2023-12-29T05:52:13;5.05;;;3.38;;
19623;SDS011;9959;49.798;9.928;2023-12-29T05:54:40;6.30;;;3.42;;
19623;SDS011;9959;49.798;9.928;2023-12-29T05:57:07;6.07;;;3.90;;
19623;SDS011;9959;49.798;9.928;2023-12-29T05:59:34;6.20;;;3.80;;
19623;SDS011;9959;49.798;9.928;2023-12-29T06:02:00;5.95;;;3.83;;
19623;SDS011;9959;49.798;9.928;2023-12-29T06:04:28;7.32;;;3.97;;
19623;SDS011;9959;49.798;9.928;2023-12-29T06:06:54;7.13;;;4.32;;
19623;SDS011;9959;49.798;9.928;2023-12-29T06:09:21;6.22;;;4.38;;
19623;SDS011;9959;49.798;9.928;2023-12-29T06:11:49;6.80;;;4.43;;
19623;SDS011;9959;49.798;9.928;2023-12-29T06:14:16;9.40;;;4.72;;
19623;SDS011;9959;49.798;9.928;2023-12-29T06:16:43;12.82;;;4.65;;
19623;SDS011;9959;49.798;9.928;2023-12-29T06:19:10;6.50;;;4.22;;
19623;SDS011;9959;49.798;9.928;2023-12-29T06:21:42;7.05;;;4.35;;
19623;SDS011;9959;49.798;9.928;2023-12-29T06:24:10;7.60;;;4.70;;
19623;SDS011;9959;49.798;9.928;2023-12-29T06:26:38;9.05;;;4.57;;
19623;SDS011;9959;49.798;9.928;2023-12-29T06:29:10;9.02;;;4.95;;
19623;SDS011;9959;49.798;9.928;2023-12-29T06:31:39;9.15;;;4.72;;
19623;SDS011;9959;49.798;9.928;2023-12-29T06:34:08;10.93;;;3.95;;
19623;SDS011;9959;49.798;9.928;2023-12-29T06:36:36;8.70;;;4.55;;
19623;SDS011;9959;49.798;9.928;2023-12-29T06:39:03;7.85;;;4.18;;
19623;SDS011;9959;49.798;9.928;2023-12-29T06:41:29;5.72;;;4.18;;
19623;SDS011;9959;49.798;9.928;2023-12-29T06:43:56;7.85;;;4.35;;
19623;SDS011;9959;49.798;9.928;2023-12-29T06:46:23;7.28;;;4.28;;
19623;SDS011;9959;49.798;9.928;2023-12-29T06:48:50;6.78;;;3.90;;
19623;SDS011;9959;49.798;9.928;2023-12-29T06:51:17;9.18;;;3.85;;
19623;SDS011;9959;49.798;9.928;2023-12-29T06:53:45;7.28;;;3.80;;
19623;SDS011;9959;49.798;9.928;2023-12-29T06:56:16;5.60;;;3.97;;
19623;SDS011;9959;49.798;9.928;2023-12-29T06:58:44;7.25;;;4.13;;
19623;SDS011;9959;49.798;9.928;2023-12-29T07:01:12;5.90;;;3.95;;
19623;SDS011;9959;49.798;9.928;2023-12-29T07:03:39;6.13;;;3.60;;
19623;SDS011;9959;49.798;9.928;2023-12-29T07:06:06;8.13;;;3.88;;
19623;SDS011;9959;49.798;9.928;2023-12-29T07:08:33;6.13;;;3.95;;
19623;SDS011;9959;49.798;9.928;2023-12-29T07:11:00;6.60;;;3.75;;
19623;SDS011;9959;49.798;9.928;2023-12-29T07:13:27;7.28;;;3.90;;
19623;SDS011;9959;49.798;9.928;2023-12-29T07:15:55;6.45;;;3.60;;
19623;SDS011;9959;49.798;9.928;2023-12-29T07:18:22;6.65;;;3.88;;
19623;SDS011;9959;49.798;9.928;2023-12-29T07:20:49;7.55;;;3.80;;
19623;SDS011;9959;49.798;9.928;2023-12-29T07:23:16;7.00;;;3.72;;
19623;SDS011;9959;49.798;9.928;2023-12-29T07:25:42;5.03;;;3.53;;
19623;SDS011;9959;49.798;9.928;2023-12-29T07:28:09;4.45;;;3.45;;
19623;SDS011;9959;49.798;9.928;2023-12-29T07:30:36;4.38;;;3.13;;
19623;SDS011;9959;49.798;9.928;2023-12-29T07:33:03;5.68;;;4.13;;
19623;SDS011;9959;49.798;9.928;2023-12-29T07:35:31;5.15;;;3.75;;
19623;SDS011;9959;49.798;9.928;2023-12-29T07:37:58;7.93;;;4.07;;
19623;SDS011;9959;49.798;9.928;2023-12-29T07:40:25;4.85;;;3.75;;
19623;SDS011;9959;49.798;9.928;2023-12-29T07:42:52;4.60;;;3.35;;
19623;SDS011;9959;49.798;9.928;2023-12-29T07:45:19;5.68;;;3.47;;
19623;SDS011;9959;49.798;9.928;2023-12-29T07:47:46;4.65;;;3.28;;
19623;SDS011;9959;49.798;9.928;2023-12-29T07:50:13;6.65;;;3.83;;
19623;SDS011;9959;49.798;9.928;2023-12-29T07:52:42;4.78;;;3.45;;
19623;SDS011;9959;49.798;9.928;2023-12-29T07:55:09;3.92;;;2.97;;
19623;SDS011;9959;49.798;9.928;2023-12-29T07:57:36;5.47;;;3.05;;
19623;SDS011;9959;49.798;9.928;2023-12-29T08:00:03;5.10;;;2.70;;
19623;SDS011;9959;49.798;9.928;2023-12-29T08:02:32;4.60;;;2.85;;
19623;SDS011;9959;49.798;9.928;2023-12-29T08:04:59;6.68;;;2.88;;
19623;SDS011;9959;49.798;9.928;2023-12-29T08:07:26;4.68;;;2.40;;
19623;SDS011;9959;49.798;9.928;2023-12-29T08:09:53;3.95;;;2.40;;
19623;SDS011;9959;49.798;9.928;2023-12-29T08:12:20;3.65;;;2.53;;
19623;SDS011;9959;49.798;9.928;2023-12-29T08:14:47;4.07;;;2.60;;
19623;SDS011;9959;49.798;9.928;2023-12-29T08:17:14;3.65;;;2.25;;
19623;SDS011;9959;49.798;9.928;2023-12-29T08:19:41;4.70;;;2.72;;
19623;SDS011;9959;49.798;9.928;2023-12-29T08:22:08;5.53;;;2.30;;
19623;SDS011;9959;49.798;9.928;2023-12-29T08:24:35;3.85;;;2.35;;
19623;SDS011;9959;49.798;9.928;2023-12-29T08:27:02;3.92;;;2.20;;
19623;SDS011;9959;49.798;9.928;2023-12-29T08:29:30;4.50;;;2.47;;
19623;SDS011;9959;49.798;9.928;2023-12-29T08:31:57;4.85;;;1.95;;
19623;SDS011;9959;49.798;9.928;2023-12-29T08:34:24;5.00;;;2.38;;
19623;SDS011;9959;49.798;9.928;2023-12-29T08:36:54;3.55;;;2.10;;
19623;SDS011;9959;49.798;9.928;2023-12-29T08:39:20;3.20;;;2.13;;
19623;SDS011;9959;49.798;9.928;2023-12-29T08:41:48;4.88;;;2.63;;
19623;SDS011;9959;49.798;9.928;2023-12-29T08:44:16;3.85;;;2.63;;
19623;SDS011;9959;49.798;9.928;2023-12-29T08:46:43;3.42;;;2.08;;
19623;SDS011;9959;49.798;9.928;2023-12-29T08:49:10;3.22;;;1.80;;
19623;SDS011;9959;49.798;9.928;2023-12-29T08:51:37;2.78;;;2.00;;
19623;SDS011;9959;49.798;9.928;2023-12-29T08:54:04;2.45;;;2.13;;
19623;SDS011;9959;49.798;9.928;2023-12-29T08:56:31;4.25;;;2.28;;
19623;SDS011;9959;49.798;9.928;2023-12-29T08:58:58;3.65;;;2.30;;
19623;SDS011;9959;49.798;9.928;2023-12-29T09:01:25;4.00;;;2.10;;
19623;SDS011;9959;49.798;9.928;2023-12-29T09:03:52;4.10;;;2.20;;
19623;SDS011;9959;49.798;9.928;2023-12-29T09:06:19;2.63;;;1.90;;
19623;SDS011;9959;49.798;9.928;2023-12-29T09:08:46;5.95;;;1.85;;
19623;SDS011;9959;49.798;9.928;2023-12-29T09:11:13;5.32;;;1.95;;
19623;SDS011;9959;49.798;9.928;2023-12-29T09:13:42;4.32;;;2.28;;
19623;SDS011;9959;49.798;9.928;2023-12-29T09:16:09;2.28;;;1.75;;
19623;SDS011;9959;49.798;9.928;2023-12-29T09:18:37;3.58;;;1.98;;
19623;SDS011;9959;49.798;9.928;2023-12-29T09:21:06;3.33;;;2.10;;
19623;SDS011;9959;49.798;9.928;2023-12-29T09:23:34;4.85;;;2.40;;
19623;SDS011;9959;49.798;9.928;2023-12-29T09:26:04;5.50;;;1.80;;
19623;SDS011;9959;49.798;9.928;2023-12-29T09:28:32;2.85;;;1.80;;
19623;SDS011;9959;49.798;9.928;2023-12-29T09:31:00;3.50;;;1.70;;
19623;SDS011;9959;49.798;9.928;2023-12-29T09:33:27;2.20;;;1.80;;
19623;SDS011;9959;49.798;9.928;2023-12-29T09:35:54;3.80;;;1.63;;
19623;SDS011;9959;49.798;9.928;2023-12-29T09:38:21;2.45;;;1.90;;
19623;SDS011;9959;49.798;9.928;2023-12-29T09:40:48;4.68;;;2.00;;
19623;SDS011;9959;49.798;9.928;2023-12-29T09:43:16;3.67;;;2.05;;
19623;SDS011;9959;49.798;9.928;2023-12-29T09:45:43;2.70;;;1.70;;
19623;SDS011;9959;49.798;9.928;2023-12-29T09:48:13;2.63;;;1.70;;
19623;SDS011;9959;49.798;9.928;2023-12-29T09:50:43;3.28;;;1.75;;
19623;SDS011;9959;49.798;9.928;2023-12-29T09:53:11;3.10;;;1.90;;
19623;SDS011;9959;49.798;9.928;2023-12-29T09:55:40;3.13;;;2.10;;
19623;SDS011;9959;49.798;9.928;2023-12-29T09:58:08;5.05;;;2.03;;
19623;SDS011;9959;49.798;9.928;2023-12-29T10:00:39;2.53;;;2.05;;
19623;SDS011;9959;49.798;9.928;2023-12-29T10:03:06;4.13;;;2.20;;
19623;SDS011;9959;49.798;9.928;2023-12-29T10:05:35;4.72;;;2.17;;
19623;SDS011;9959;49.798;9.928;2023-12-29T10:08:02;3.38;;;1.85;;
19623;SDS011;9959;49.798;9.928;2023-12-29T10:10:34;3.92;;;2.10;;
19623;SDS011;9959;49.798;9.928;2023-12-29T10:13:03;3.10;;;2.58;;
19623;SDS011;9959;49.798;9.928;2023-12-29T10:15:35;6.07;;;2.78;;
19623;SDS011;9959;49.798;9.928;2023-12-29T10:18:11;4.72;;;3.05;;
19623;SDS011;9959;49.798;9.928;2023-12-29T10:23:54;3.90;;;2.30;;
19623;SDS011;9959;49.798;9.928;2023-12-29T10:26:25;3.28;;;2.03;;
19623;SDS011;9959;49.798;9.928;2023-12-29T10:28:53;3.95;;;2.30;;
19623;SDS011;9959;49.798;9.928;2023-12-29T10:31:22;3.17;;;2.28;;
19623;SDS011;9959;49.798;9.928;2023-12-29T10:33:50;3.00;;;2.28;;
19623;SDS011;9959;49.798;9.928;2023-12-29T10:36:18;2.65;;;2.13;;
19623;SDS011;9959;49.798;9.928;2023-12-29T10:38:45;2.75;;;2.20;;
19623;SDS011;9959;49.798;9.928;2023-12-29T10:41:17;5.97;;;3.00;;
19623;SDS011;9959;49.798;9.928;2023-12-29T10:43:45;4.45;;;2.67;;
19623;SDS011;9959;49.798;9.928;2023-12-29T10:46:22;3.42;;;2.75;;
19623;SDS011;9959;49.798;9.928;2023-12-29T10:48:52;3.97;;;2.42;;
19623;SDS011;9959;49.798;9.928;2023-12-29T10:51:26;3.88;;;2.90;;
19623;SDS011;9959;49.798;9.928;2023-12-29T10:53:56;3.40;;;2.00;;
19623;SDS011;9959;49.798;9.928;2023-12-29T10:56:26;4.35;;;1.90;;
19623;SDS011;9959;49.798;9.928;2023-12-29T10:59:01;2.60;;;1.90;;
19623;SDS011;9959;49.798;9.928;2023-12-29T11:01:37;4.40;;;2.05;;
19623;SDS011;9959;49.798;9.928;2023-12-29T11:04:05;2.78;;;2.15;;
19623;SDS011;9959;49.798;9.928;2023-12-29T11:06:40;3.10;;;1.90;;
19623;SDS011;9959;49.798;9.928;2023-12-29T11:09:08;2.30;;;1.83;;
19623;SDS011;9959;49.798;9.928;2023-12-29T11:11:37;3.72;;;1.90;;
19623;SDS011;9959;49.798;9.928;2023-12-29T11:14:04;2.35;;;1.73;;
19623;SDS011;9959;49.798;9.928;2023-12-29T11:16:32;3.10;;;1.83;;
19623;SDS011;9959;49.798;9.928;2023-12-29T11:18:59;2.65;;;1.50;;
19623;SDS011;9959;49.798;9.928;2023-12-29T11:21:29;3.47;;;2.03;;
19623;SDS011;9959;49.798;9.928;2023-12-29T11:23:58;2.38;;;1.65;;
19623;SDS011;9959;49.798;9.928;2023-12-29T11:26:25;4.40;;;1.77;;
19623;SDS011;9959;49.798;9.928;2023-12-29T11:28:53;3.38;;;1.60;;
19623;SDS011;9959;49.798;9.928;2023-12-29T11:31:21;5.20;;;1.63;;
19623;SDS011;9959;49.798;9.928;2023-12-29T11:34:33;3.03;;;1.75;;
19623;SDS011;9959;49.798;9.928;2023-12-29T11:36:44;3.38;;;1.80;;
19623;SDS011;9959;49.798;9.928;2023-12-29T11:39:17;3.22;;;1.92;;
19623;SDS011;9959;49.798;9.928;2023-12-29T11:42:12;4.15;;;1.75;;
19623;SDS011;9959;49.798;9.928;2023-12-29T11:44:54;1.58;;;1.35;;
19623;SDS011;9959;49.798;9.928;2023-12-29T11:47:39;1.58;;;1.30;;
19623;SDS011;9959;49.798;9.928;2023-12-29T11:50:08;0.82;;;0.82;;
19623;SDS011;9959;49.798;9.928;2023-12-29T11:52:39;2.08;;;1.05;;
19623;SDS011;9959;49.798;9.928;2023-12-29T11:57:41;2.83;;;1.38;;
19623;SDS011;9959;49.798;9.928;2023-12-29T12:00:08;3.67;;;1.30;;
19623;SDS011;9959;49.798;9.928;2023-12-29T12:02:36;2.65;;;1.48;;
19623;SDS011;9959;49.798;9.928;2023-12-29T12:05:03;1.67;;;1.15;;
19623;SDS011;9959;49.798;9.928;2023-12-29T12:12:47;2.15;;;1.40;;
19623;SDS011;9959;49.798;9.928;2023-12-29T12:18:01;3.20;;;1.60;;
19623;SDS011;9959;49.798;9.928;2023-12-29T12:20:37;6.45;;;1.80;;
19623;SDS011;9959;49.798;9.928;2023-12-29T12:23:11;1.80;;;1.60;;
19623;SDS011;9959;49.798;9.928;2023-12-29T12:25:44;2.75;;;1.90;;
19623;SDS011;9959;49.798;9.928;2023-12-29T12:28:13;3.08;;;1.98;;
19623;SDS011;9959;49.798;9.928;2023-12-29T12:30:41;4.00;;;1.90;;
19623;SDS011;9959;49.798;9.928;2023-12-29T12:33:08;2.00;;;1.80;;
19623;SDS011;9959;49.798;9.928;2023-12-29T12:35:38;1.95;;;1.75;;
19623;SDS011;9959;49.798;9.928;2023-12-29T12:38:07;4.45;;;2.15;;
19623;SDS011;9959;49.798;9.928;2023-12-29T12:40:35;3.95;;;2.20;;
19623;SDS011;9959;49.798;9.928;2023-12-29T12:43:02;3.10;;;2.10;;
19623;SDS011;9959;49.798;9.928;2023-12-29T12:45:34;3.72;;;2.00;;
19623;SDS011;9959;49.798;9.928;2023-12-29T12:48:14;4.43;;;1.98;;
19623;SDS011;9959;49.798;9.928;2023-12-29T12:50:49;2.10;;;1.50;;
19623;SDS011;9959;49.798;9.928;2023-12-29T12:53:16;5.35;;;2.30;;
19623;SDS011;9959;49.798;9.928;2023-12-29T12:55:48;2.80;;;1.60;;
19623;SDS011;9959;49.798;9.928;2023-12-29T12:58:17;2.38;;;1.60;;
19623;SDS011;9959;49.798;9.928;2023-12-29T13:00:50;2.55;;;1.33;;
19623;SDS011;9959;49.798;9.928;2023-12-29T13:03:21;4.88;;;1.92;;
19623;SDS011;9959;49.798;9.928;2023-12-29T13:05:49;3.72;;;1.90;;
19623;SDS011;9959;49.798;9.928;2023-12-29T13:08:16;1.73;;;1.30;;
19623;SDS011;9959;49.798;9.928;2023-12-29T13:10:59;2.63;;;1.73;;
19623;SDS011;9959;49.798;9.928;2023-12-29T13:13:40;2.97;;;1.65;;
19623;SDS011;9959;49.798;9.928;2023-12-29T13:16:10;3.03;;;1.80;;
19623;SDS011;9959;49.798;9.928;2023-12-29T13:18:37;2.33;;;1.70;;
19623;SDS011;9959;49.798;9.928;2023-12-29T13:21:06;3.97;;;2.08;;
19623;SDS011;9959;49.798;9.928;2023-12-29T13:23:33;2.33;;;1.80;;
19623;SDS011;9959;49.798;9.928;2023-12-29T13:26:04;3.00;;;1.77;;
19623;SDS011;9959;49.798;9.928;2023-12-29T13:28:34;2.70;;;1.30;;
19623;SDS011;9959;49.798;9.928;2023-12-29T13:31:05;2.15;;;1.60;;
19623;SDS011;9959;49.798;9.928;2023-12-29T13:33:51;3.30;;;1.70;;
19623;SDS011;9959;49.798;9.928;2023-12-29T13:39:24;1.60;;;1.40;;
19623;SDS011;9959;49.798;9.928;2023-12-29T13:42:04;2.33;;;1.48;;
19623;SDS011;9959;49.798;9.928;2023-12-29T13:44:34;1.60;;;1.27;;
19623;SDS011;9959;49.798;9.928;2023-12-29T13:47:05;1.65;;;1.48;;
19623;SDS011;9959;49.798;9.928;2023-12-29T13:49:33;2.67;;;1.60;;
19623;SDS011;9959;49.798;9.928;2023-12-29T13:52:03;2.40;;;1.35;;
19623;SDS011;9959;49.798;9.928;2023-12-29T13:54:31;2.85;;;1.50;;
19623;SDS011;9959;49.798;9.928;2023-12-29T13:57:09;1.35;;;1.17;;
19623;SDS011;9959;49.798;9.928;2023-12-29T13:59:36;3.42;;;1.30;;
19623;SDS011;9959;49.798;9.928;2023-12-29T14:02:18;2.70;;;1.63;;
19623;SDS011;9959;49.798;9.928;2023-12-29T14:04:49;1.88;;;1.30;;
19623;SDS011;9959;49.798;9.928;2023-12-29T14:07:17;3.63;;;1.52;;
19623;SDS011;9959;49.798;9.928;2023-12-29T14:09:53;2.85;;;1.20;;
19623;SDS011;9959;49.798;9.928;2023-12-29T14:12:24;1.30;;;1.20;;
19623;SDS011;9959;49.798;9.928;2023-12-29T14:14:54;1.65;;;1.20;;
19623;SDS011;9959;49.798;9.928;2023-12-29T14:17:21;2.13;;;1.38;;
19623;SDS011;9959;49.798;9.928;2023-12-29T14:19:48;1.73;;;1.48;;
19623;SDS011;9959;49.798;9.928;2023-12-29T14:22:21;3.53;;;1.40;;
19623;SDS011;9959;49.798;9.928;2023-12-29T14:25:02;1.95;;;1.48;;
19623;SDS011;9959;49.798;9.928;2023-12-29T14:27:31;4.00;;;1.52;;
19623;SDS011;9959;49.798;9.928;2023-12-29T14:29:57;3.80;;;1.60;;
19623;SDS011;9959;49.798;9.928;2023-12-29T14:32:26;2.55;;;1.55;;
19623;SDS011;9959;49.798;9.928;2023-12-29T14:34:55;5.63;;;3.05;;
19623;SDS011;9959;49.798;9.928;2023-12-29T14:37:22;5.47;;;3.45;;
19623;SDS011;9959;49.798;9.928;2023-12-29T14:39:50;4.63;;;1.75;;
19623;SDS011;9959;49.798;9.928;2023-12-29T14:42:17;3.88;;;1.60;;
19623;SDS011;9959;49.798;9.928;2023-12-29T14:44:47;2.22;;;1.90;;
19623;SDS011;9959;49.798;9.928;2023-12-29T14:47:15;1.52;;;1.40;;
19623;SDS011;9959;49.798;9.928;2023-12-29T14:49:43;2.00;;;1.40;;
19623;SDS011;9959;49.798;9.928;2023-12-29T14:52:10;2.70;;;2.03;;
19623;SDS011;9959;49.798;9.928;2023-12-29T14:54:38;3.80;;;1.80;;
19623;SDS011;9959;49.798;9.928;2023-12-29T14:57:06;1.77;;;1.50;;
19623;SDS011;9959;49.798;9.928;2023-12-29T14:59:40;3.03;;;1.50;;
19623;SDS011;9959;49.798;9.928;2023-12-29T15:02:07;3.67;;;2.05;;
19623;SDS011;9959;49.798;9.928;2023-12-29T15:04:34;2.25;;;1.90;;
19623;SDS011;9959;49.798;9.928;2023-12-29T15:07:02;3.10;;;1.80;;
19623;SDS011;9959;49.798;9.928;2023-12-29T15:09:30;6.25;;;2.90;;
19623;SDS011;9959;49.798;9.928;2023-12-29T15:11:56;3.50;;;2.20;;
19623;SDS011;9959;49.798;9.928;2023-12-29T15:14:23;3.50;;;1.60;;
19623;SDS011;9959;49.798;9.928;2023-12-29T15:16:50;3.75;;;2.00;;
19623;SDS011;9959;49.798;9.928;2023-12-29T15:19:17;4.82;;;2.15;;
19623;SDS011;9959;49.798;9.928;2023-12-29T15:21:44;2.78;;;1.50;;
19623;SDS011;9959;49.798;9.928;2023-12-29T15:24:11;2.78;;;1.90;;
19623;SDS011;9959;49.798;9.928;2023-12-29T15:26:38;2.45;;;1.70;;